sensor_id;sensor_type;location;lat;lon;timestamp;temperature;humidity
77305;DHT22;66364;52.622;7.746;2023-03-11T00:00:02;0.50;99.90
77305;DHT22;66364;52.622;7.746;2023-03-11T00:02:03;0.80;99.90
77305;DHT22;66364;52.622;7.746;2023-03-11T00:04:04;0.40;99.90
77305;DHT22;66364;52.622;7.746;2023-03-11T00:06:05;0.60;99.90
77305;DHT22;66364;52.622;7.746;2023-03-11T00:08:08;0.40;99.90
77305;DHT22;66364;52.622;7.746;2023-03-11T00:10:15;0.50;99.90
77305;DHT22;66364;52.622;7.746;2023-03-11T00:12:15;0.50;99.90
77305;DHT22;66364;52.622;7.746;2023-03-11T00:14:16;0.40;99.90
77305;DHT22;66364;52.622;7.746;2023-03-11T00:16:17;0.80;99.90
77305;DHT22;66364;52.622;7.746;2023-03-11T00:18:17;0.50;99.90
77305;DHT22;66364;52.622;7.746;2023-03-11T00:20:22;0.50;99.90
77305;DHT22;66364;52.622;7.746;2023-03-11T00:22:23;0.70;99.90
77305;DHT22;66364;52.622;7.746;2023-03-11T00:24:24;-0.10;99.90
77305;DHT22;66364;52.622;7.746;2023-03-11T00:26:24;0.70;99.90
77305;DHT22;66364;52.622;7.746;2023-03-11T00:28:25;0.70;99.90
77305;DHT22;66364;52.622;7.746;2023-03-11T00:30:26;0.50;99.90
77305;DHT22;66364;52.622;7.746;2023-03-11T00:32:27;0.90;99.90
77305;DHT22;66364;52.622;7.746;2023-03-11T00:34:28;0.50;99.90
77305;DHT22;66364;52.622;7.746;2023-03-11T00:36:30;0.90;99.90
77305;DHT22;66364;52.622;7.746;2023-03-11T00:38:31;0.80;99.90
77305;DHT22;66364;52.622;7.746;2023-03-11T00:40:34;0.70;99.90
77305;DHT22;66364;52.622;7.746;2023-03-11T00:42:35;0.70;99.90
77305;DHT22;66364;52.622;7.746;2023-03-11T00:44:35;0.80;99.90
77305;DHT22;66364;52.622;7.746;2023-03-11T00:46:36;0.50;99.90
77305;DHT22;66364;52.622;7.746;2023-03-11T00:48:37;0.50;99.90
77305;DHT22;66364;52.622;7.746;2023-03-11T00:50:39;0.30;99.90
77305;DHT22;66364;52.622;7.746;2023-03-11T00:52:40;0.60;99.90
77305;DHT22;66364;52.622;7.746;2023-03-11T00:54:40;0.40;99.90
77305;DHT22;66364;52.622;7.746;2023-03-11T00:56:41;0.40;99.90
77305;DHT22;66364;52.622;7.746;2023-03-11T00:58:43;0.20;99.90
77305;DHT22;66364;52.622;7.746;2023-03-11T01:00:43;0.50;99.90
77305;DHT22;66364;52.622;7.746;2023-03-11T01:05:07;0.10;99.90
77305;DHT22;66364;52.622;7.746;2023-03-11T01:07:09;0.20;99.90
77305;DHT22;66364;52.622;7.746;2023-03-11T01:09:10;-0.40;99.90
77305;DHT22;66364;52.622;7.746;2023-03-11T01:11:10;0.20;99.90
77305;DHT22;66364;52.622;7.746;2023-03-11T01:13:11;0.20;99.90
77305;DHT22;66364;52.622;7.746;2023-03-11T01:15:31;0.50;99.90
77305;DHT22;66364;52.622;7.746;2023-03-11T01:17:28;0.30;99.90
77305;DHT22;66364;52.622;7.746;2023-03-11T01:19:29;0.20;99.90
77305;DHT22;66364;52.622;7.746;2023-03-11T01:21:30;0.10;99.90
77305;DHT22;66364;52.622;7.746;2023-03-11T01:23:31;0.10;99.90
77305;DHT22;66364;52.622;7.746;2023-03-11T01:25:31;0.20;99.90
77305;DHT22;66364;52.622;7.746;2023-03-11T01:27:32;0.10;99.90
77305;DHT22;66364;52.622;7.746;2023-03-11T01:29:32;0.40;99.90
77305;DHT22;66364;52.622;7.746;2023-03-11T01:31:33;0.30;99.90
77305;DHT22;66364;52.622;7.746;2023-03-11T01:33:34;0.30;99.90
77305;DHT22;66364;52.622;7.746;2023-03-11T01:35:34;0.20;99.90
77305;DHT22;66364;52.622;7.746;2023-03-11T01:37:35;0.20;99.90
77305;DHT22;66364;52.622;7.746;2023-03-11T01:39:36;0.40;99.90
77305;DHT22;66364;52.622;7.746;2023-03-11T01:41:37;0.20;99.90
77305;DHT22;66364;52.622;7.746;2023-03-11T01:43:47;0.20;99.90
77305;DHT22;66364;52.622;7.746;2023-03-11T01:48:10;0.20;99.90
77305;DHT22;66364;52.622;7.746;2023-03-11T01:50:12;0.20;99.90
77305;DHT22;66364;52.622;7.746;2023-03-11T01:52:12;0.20;99.90
77305;DHT22;66364;52.622;7.746;2023-03-11T01:54:16;0.50;99.90
77305;DHT22;66364;52.622;7.746;2023-03-11T01:56:18;0.20;99.90
77305;DHT22;66364;52.622;7.746;2023-03-11T01:58:24;0.30;99.90
77305;DHT22;66364;52.622;7.746;2023-03-11T02:00:25;0.40;99.90
77305;DHT22;66364;52.622;7.746;2023-03-11T02:04:58;0.20;99.90
77305;DHT22;66364;52.622;7.746;2023-03-11T02:07:03;0.20;99.90
77305;DHT22;66364;52.622;7.746;2023-03-11T02:09:04;0.10;99.90
77305;DHT22;66364;52.622;7.746;2023-03-11T02:11:06;0.10;99.90
77305;DHT22;66364;52.622;7.746;2023-03-11T02:13:09;0.00;99.90
77305;DHT22;66364;52.622;7.746;2023-03-11T02:15:10;0.20;99.90
77305;DHT22;66364;52.622;7.746;2023-03-11T02:17:12;0.20;99.90
77305;DHT22;66364;52.622;7.746;2023-03-11T02:21:38;0.20;99.90
77305;DHT22;66364;52.622;7.746;2023-03-11T02:26:08;0.10;99.90
77305;DHT22;66364;52.622;7.746;2023-03-11T02:28:12;0.10;99.90
77305;DHT22;66364;52.622;7.746;2023-03-11T02:30:15;0.10;99.90
77305;DHT22;66364;52.622;7.746;2023-03-11T02:32:17;0.00;99.90
77305;DHT22;66364;52.622;7.746;2023-03-11T02:34:29;0.30;99.90
77305;DHT22;66364;52.622;7.746;2023-03-11T02:36:40;0.00;99.90
77305;DHT22;66364;52.622;7.746;2023-03-11T02:38:41;0.00;99.90
77305;DHT22;66364;52.622;7.746;2023-03-11T02:40:57;0.00;99.90
77305;DHT22;66364;52.622;7.746;2023-03-11T02:43:01;0.20;99.90
77305;DHT22;66364;52.622;7.746;2023-03-11T02:45:13;0.00;99.90
77305;DHT22;66364;52.622;7.746;2023-03-11T02:47:34;0.00;99.90
77305;DHT22;66364;52.622;7.746;2023-03-11T02:49:37;0.00;99.90
77305;DHT22;66364;52.622;7.746;2023-03-11T02:51:38;0.10;99.90
77305;DHT22;66364;52.622;7.746;2023-03-11T02:53:44;0.10;99.90
77305;DHT22;66364;52.622;7.746;2023-03-11T02:55:43;0.10;99.90
77305;DHT22;66364;52.622;7.746;2023-03-11T02:57:43;0.00;99.90
77305;DHT22;66364;52.622;7.746;2023-03-11T02:59:44;0.00;99.90
77305;DHT22;66364;52.622;7.746;2023-03-11T03:01:45;0.30;99.90
77305;DHT22;66364;52.622;7.746;2023-03-11T03:03:45;-0.10;99.90
77305;DHT22;66364;52.622;7.746;2023-03-11T03:05:46;0.00;99.90
77305;DHT22;66364;52.622;7.746;2023-03-11T03:07:47;0.00;99.90
77305;DHT22;66364;52.622;7.746;2023-03-11T03:09:48;-0.10;99.90
77305;DHT22;66364;52.622;7.746;2023-03-11T03:11:49;-0.20;99.90
77305;DHT22;66364;52.622;7.746;2023-03-11T03:13:49;-0.20;99.90
77305;DHT22;66364;52.622;7.746;2023-03-11T03:15:50;-0.20;99.90
77305;DHT22;66364;52.622;7.746;2023-03-11T03:17:51;0.00;99.90
77305;DHT22;66364;52.622;7.746;2023-03-11T03:19:52;0.00;99.90
77305;DHT22;66364;52.622;7.746;2023-03-11T03:21:52;0.00;99.90
77305;DHT22;66364;52.622;7.746;2023-03-11T03:23:53;0.10;99.90
77305;DHT22;66364;52.622;7.746;2023-03-11T03:25:54;-0.10;99.90
77305;DHT22;66364;52.622;7.746;2023-03-11T03:27:54;-0.10;99.90
77305;DHT22;66364;52.622;7.746;2023-03-11T03:29:58;-0.20;99.90
77305;DHT22;66364;52.622;7.746;2023-03-11T03:31:59;0.00;99.90
77305;DHT22;66364;52.622;7.746;2023-03-11T03:34:01;0.10;99.90
77305;DHT22;66364;52.622;7.746;2023-03-11T03:36:08;0.20;99.90
77305;DHT22;66364;52.622;7.746;2023-03-11T03:38:09;0.10;99.90
77305;DHT22;66364;52.622;7.746;2023-03-11T03:40:12;-0.60;99.90
77305;DHT22;66364;52.622;7.746;2023-03-11T03:42:13;0.10;99.90
77305;DHT22;66364;52.622;7.746;2023-03-11T03:44:13;-0.10;99.90
77305;DHT22;66364;52.622;7.746;2023-03-11T03:46:15;0.10;99.90
77305;DHT22;66364;52.622;7.746;2023-03-11T03:48:15;0.00;99.90
77305;DHT22;66364;52.622;7.746;2023-03-11T03:50:16;-0.10;99.90
77305;DHT22;66364;52.622;7.746;2023-03-11T03:52:17;0.00;99.90
77305;DHT22;66364;52.622;7.746;2023-03-11T03:54:18;-0.10;99.90
77305;DHT22;66364;52.622;7.746;2023-03-11T03:56:18;-0.10;99.90
77305;DHT22;66364;52.622;7.746;2023-03-11T03:58:19;-0.10;99.90
77305;DHT22;66364;52.622;7.746;2023-03-11T04:00:26;-0.20;99.90
77305;DHT22;66364;52.622;7.746;2023-03-11T04:02:26;0.00;99.90
77305;DHT22;66364;52.622;7.746;2023-03-11T04:04:27;-0.20;99.90
77305;DHT22;66364;52.622;7.746;2023-03-11T04:06:28;-0.10;99.90
77305;DHT22;66364;52.622;7.746;2023-03-11T04:08:28;-0.40;99.90
77305;DHT22;66364;52.622;7.746;2023-03-11T04:10:29;-0.50;99.90
77305;DHT22;66364;52.622;7.746;2023-03-11T04:12:30;-0.50;99.90
77305;DHT22;66364;52.622;7.746;2023-03-11T04:14:30;-0.50;99.90
77305;DHT22;66364;52.622;7.746;2023-03-11T04:16:32;-0.60;99.90
77305;DHT22;66364;52.622;7.746;2023-03-11T04:21:15;-0.40;99.90
77305;DHT22;66364;52.622;7.746;2023-03-11T04:23:15;-0.60;99.90
77305;DHT22;66364;52.622;7.746;2023-03-11T04:25:16;-0.60;99.90
77305;DHT22;66364;52.622;7.746;2023-03-11T04:27:17;-0.80;99.90
77305;DHT22;66364;52.622;7.746;2023-03-11T04:29:18;-1.00;99.90
77305;DHT22;66364;52.622;7.746;2023-03-11T04:31:18;-0.70;99.90
77305;DHT22;66364;52.622;7.746;2023-03-11T04:33:22;-0.50;99.90
77305;DHT22;66364;52.622;7.746;2023-03-11T04:35:25;-1.30;99.90
77305;DHT22;66364;52.622;7.746;2023-03-11T04:37:27;-1.40;99.90
77305;DHT22;66364;52.622;7.746;2023-03-11T04:39:28;-0.80;99.90
77305;DHT22;66364;52.622;7.746;2023-03-11T04:41:28;-0.60;99.90
77305;DHT22;66364;52.622;7.746;2023-03-11T04:43:29;-0.50;99.90
77305;DHT22;66364;52.622;7.746;2023-03-11T04:45:30;-0.50;99.90
77305;DHT22;66364;52.622;7.746;2023-03-11T04:47:31;-0.70;99.90
77305;DHT22;66364;52.622;7.746;2023-03-11T04:49:32;-0.90;99.90
77305;DHT22;66364;52.622;7.746;2023-03-11T04:51:33;-0.70;99.90
77305;DHT22;66364;52.622;7.746;2023-03-11T04:53:33;-0.90;99.90
77305;DHT22;66364;52.622;7.746;2023-03-11T04:55:36;-0.80;99.90
77305;DHT22;66364;52.622;7.746;2023-03-11T04:57:36;-1.00;99.90
77305;DHT22;66364;52.622;7.746;2023-03-11T04:59:37;-0.80;99.90
77305;DHT22;66364;52.622;7.746;2023-03-11T05:01:38;-0.80;99.90
77305;DHT22;66364;52.622;7.746;2023-03-11T05:03:38;-1.20;99.90
77305;DHT22;66364;52.622;7.746;2023-03-11T05:05:39;-0.90;99.90
77305;DHT22;66364;52.622;7.746;2023-03-11T05:07:40;-0.90;99.90
77305;DHT22;66364;52.622;7.746;2023-03-11T05:09:47;-1.10;99.90
77305;DHT22;66364;52.622;7.746;2023-03-11T05:11:47;-1.00;99.90
77305;DHT22;66364;52.622;7.746;2023-03-11T05:13:48;-0.80;99.90
77305;DHT22;66364;52.622;7.746;2023-03-11T05:15:49;-1.70;99.90
77305;DHT22;66364;52.622;7.746;2023-03-11T05:17:49;-1.10;99.90
77305;DHT22;66364;52.622;7.746;2023-03-11T05:19:53;-1.10;99.90
77305;DHT22;66364;52.622;7.746;2023-03-11T05:21:53;-1.20;99.90
77305;DHT22;66364;52.622;7.746;2023-03-11T05:23:54;-1.10;99.90
77305;DHT22;66364;52.622;7.746;2023-03-11T05:25:55;-1.10;99.90
77305;DHT22;66364;52.622;7.746;2023-03-11T05:27:56;-1.20;99.90
77305;DHT22;66364;52.622;7.746;2023-03-11T05:29:57;-1.10;99.90
77305;DHT22;66364;52.622;7.746;2023-03-11T05:31:57;-1.20;99.90
77305;DHT22;66364;52.622;7.746;2023-03-11T05:33:58;-1.00;99.90
77305;DHT22;66364;52.622;7.746;2023-03-11T05:36:07;-1.20;99.90
77305;DHT22;66364;52.622;7.746;2023-03-11T05:38:08;-1.10;99.90
77305;DHT22;66364;52.622;7.746;2023-03-11T05:40:11;-1.30;99.90
77305;DHT22;66364;52.622;7.746;2023-03-11T05:42:11;-1.90;99.90
77305;DHT22;66364;52.622;7.746;2023-03-11T05:44:12;-1.30;99.90
77305;DHT22;66364;52.622;7.746;2023-03-11T05:46:13;-1.30;99.90
77305;DHT22;66364;52.622;7.746;2023-03-11T05:48:13;-1.40;99.90
77305;DHT22;66364;52.622;7.746;2023-03-11T05:50:14;-1.30;99.90
77305;DHT22;66364;52.622;7.746;2023-03-11T05:52:15;-1.40;99.90
77305;DHT22;66364;52.622;7.746;2023-03-11T05:54:16;-1.40;99.90
77305;DHT22;66364;52.622;7.746;2023-03-11T05:56:19;-1.40;99.90
77305;DHT22;66364;52.622;7.746;2023-03-11T05:58:20;-1.40;99.90
77305;DHT22;66364;52.622;7.746;2023-03-11T06:00:21;-1.40;99.90
77305;DHT22;66364;52.622;7.746;2023-03-11T06:02:22;-1.50;99.90
77305;DHT22;66364;52.622;7.746;2023-03-11T06:04:22;-1.60;99.90
77305;DHT22;66364;52.622;7.746;2023-03-11T06:06:23;-1.30;99.90
77305;DHT22;66364;52.622;7.746;2023-03-11T06:08:24;-1.60;99.90
77305;DHT22;66364;52.622;7.746;2023-03-11T06:10:25;-1.40;99.90
77305;DHT22;66364;52.622;7.746;2023-03-11T06:12:25;-1.40;99.90
77305;DHT22;66364;52.622;7.746;2023-03-11T06:14:26;-1.40;99.90
77305;DHT22;66364;52.622;7.746;2023-03-11T06:16:27;-1.50;99.90
77305;DHT22;66364;52.622;7.746;2023-03-11T06:18:27;-2.10;99.90
77305;DHT22;66364;52.622;7.746;2023-03-11T06:20:28;-1.60;99.90
77305;DHT22;66364;52.622;7.746;2023-03-11T06:22:29;-1.50;99.90
77305;DHT22;66364;52.622;7.746;2023-03-11T06:24:29;-1.50;99.90
77305;DHT22;66364;52.622;7.746;2023-03-11T06:26:30;-1.60;99.90
77305;DHT22;66364;52.622;7.746;2023-03-11T06:28:32;-1.70;99.90
77305;DHT22;66364;52.622;7.746;2023-03-11T06:30:33;-1.60;99.90
77305;DHT22;66364;52.622;7.746;2023-03-11T06:32:34;-1.50;99.90
77305;DHT22;66364;52.622;7.746;2023-03-11T06:34:34;-1.70;99.90
77305;DHT22;66364;52.622;7.746;2023-03-11T06:36:44;-1.50;99.90
77305;DHT22;66364;52.622;7.746;2023-03-11T06:38:45;-1.80;99.90
77305;DHT22;66364;52.622;7.746;2023-03-11T06:40:46;-1.30;99.90
77305;DHT22;66364;52.622;7.746;2023-03-11T06:42:46;-1.50;99.90
77305;DHT22;66364;52.622;7.746;2023-03-11T06:44:47;-1.30;99.90
77305;DHT22;66364;52.622;7.746;2023-03-11T06:46:48;-1.40;99.90
77305;DHT22;66364;52.622;7.746;2023-03-11T06:48:48;-1.50;99.90
77305;DHT22;66364;52.622;7.746;2023-03-11T06:50:55;-1.30;99.90
77305;DHT22;66364;52.622;7.746;2023-03-11T06:52:56;-1.40;99.90
77305;DHT22;66364;52.622;7.746;2023-03-11T06:54:57;-1.10;99.90
77305;DHT22;66364;52.622;7.746;2023-03-11T06:56:58;-1.60;99.90
77305;DHT22;66364;52.622;7.746;2023-03-11T06:58:59;-1.40;99.90
77305;DHT22;66364;52.622;7.746;2023-03-11T07:01:05;-1.30;99.90
77305;DHT22;66364;52.622;7.746;2023-03-11T07:03:09;-1.10;99.90
77305;DHT22;66364;52.622;7.746;2023-03-11T07:05:11;-1.60;99.90
77305;DHT22;66364;52.622;7.746;2023-03-11T07:07:12;-1.20;99.90
77305;DHT22;66364;52.622;7.746;2023-03-11T07:09:13;-0.90;99.90
77305;DHT22;66364;52.622;7.746;2023-03-11T07:11:22;-0.80;99.90
77305;DHT22;66364;52.622;7.746;2023-03-11T07:13:23;-0.80;99.90
77305;DHT22;66364;52.622;7.746;2023-03-11T07:15:23;-0.80;99.90
77305;DHT22;66364;52.622;7.746;2023-03-11T07:17:25;-0.90;99.90
77305;DHT22;66364;52.622;7.746;2023-03-11T07:19:25;-1.00;99.90
77305;DHT22;66364;52.622;7.746;2023-03-11T07:21:27;-0.50;99.90
77305;DHT22;66364;52.622;7.746;2023-03-11T07:23:28;-0.90;99.90
77305;DHT22;66364;52.622;7.746;2023-03-11T07:25:29;-0.70;99.90
77305;DHT22;66364;52.622;7.746;2023-03-11T07:27:29;-0.80;99.90
77305;DHT22;66364;52.622;7.746;2023-03-11T07:29:30;-0.60;99.90
77305;DHT22;66364;52.622;7.746;2023-03-11T07:31:33;-0.40;99.90
77305;DHT22;66364;52.622;7.746;2023-03-11T07:33:34;-0.40;99.90
77305;DHT22;66364;52.622;7.746;2023-03-11T07:35:35;-0.50;99.90
77305;DHT22;66364;52.622;7.746;2023-03-11T07:37:35;-0.50;99.90
77305;DHT22;66364;52.622;7.746;2023-03-11T07:39:39;0.10;99.90
77305;DHT22;66364;52.622;7.746;2023-03-11T07:41:40;-0.50;99.90
77305;DHT22;66364;52.622;7.746;2023-03-11T07:43:41;0.10;99.90
77305;DHT22;66364;52.622;7.746;2023-03-11T07:45:42;0.00;99.90
77305;DHT22;66364;52.622;7.746;2023-03-11T07:47:43;0.20;99.90
77305;DHT22;66364;52.622;7.746;2023-03-11T07:49:43;-0.10;99.90
77305;DHT22;66364;52.622;7.746;2023-03-11T07:51:44;0.00;99.90
77305;DHT22;66364;52.622;7.746;2023-03-11T07:53:45;0.20;99.90
77305;DHT22;66364;52.622;7.746;2023-03-11T07:55:46;0.20;99.90
77305;DHT22;66364;52.622;7.746;2023-03-11T07:57:47;0.30;99.90
77305;DHT22;66364;52.622;7.746;2023-03-11T07:59:48;0.40;99.90
77305;DHT22;66364;52.622;7.746;2023-03-11T08:01:49;0.60;99.90
77305;DHT22;66364;52.622;7.746;2023-03-11T08:03:51;0.70;99.90
77305;DHT22;66364;52.622;7.746;2023-03-11T08:05:52;0.80;99.90
77305;DHT22;66364;52.622;7.746;2023-03-11T08:07:52;0.40;99.90
77305;DHT22;66364;52.622;7.746;2023-03-11T08:09:53;0.50;99.90
77305;DHT22;66364;52.622;7.746;2023-03-11T08:11:54;0.60;99.90
77305;DHT22;66364;52.622;7.746;2023-03-11T08:13:54;0.50;99.90
77305;DHT22;66364;52.622;7.746;2023-03-11T08:15:55;1.10;99.90
77305;DHT22;66364;52.622;7.746;2023-03-11T08:17:56;1.00;99.90
77305;DHT22;66364;52.622;7.746;2023-03-11T08:19:57;1.20;99.90
77305;DHT22;66364;52.622;7.746;2023-03-11T08:22:00;1.30;99.90
77305;DHT22;66364;52.622;7.746;2023-03-11T08:24:01;1.10;99.90
77305;DHT22;66364;52.622;7.746;2023-03-11T08:28:24;1.10;99.90
77305;DHT22;66364;52.622;7.746;2023-03-11T08:30:25;1.40;99.90
77305;DHT22;66364;52.622;7.746;2023-03-11T08:32:34;1.20;99.90
77305;DHT22;66364;52.622;7.746;2023-03-11T08:34:35;1.60;99.90
77305;DHT22;66364;52.622;7.746;2023-03-11T08:36:55;1.60;99.90
77305;DHT22;66364;52.622;7.746;2023-03-11T08:38:56;1.30;99.90
77305;DHT22;66364;52.622;7.746;2023-03-11T08:40:57;1.50;99.90
77305;DHT22;66364;52.622;7.746;2023-03-11T08:43:01;1.60;99.90
77305;DHT22;66364;52.622;7.746;2023-03-11T08:45:01;2.00;99.90
77305;DHT22;66364;52.622;7.746;2023-03-11T08:47:02;2.00;99.90
77305;DHT22;66364;52.622;7.746;2023-03-11T08:49:09;2.10;99.90
77305;DHT22;66364;52.622;7.746;2023-03-11T08:51:13;2.00;99.90
77305;DHT22;66364;52.622;7.746;2023-03-11T08:53:13;2.20;99.90
77305;DHT22;66364;52.622;7.746;2023-03-11T08:55:16;2.30;99.90
77305;DHT22;66364;52.622;7.746;2023-03-11T08:57:17;2.40;99.90
77305;DHT22;66364;52.622;7.746;2023-03-11T08:59:18;2.40;99.90
77305;DHT22;66364;52.622;7.746;2023-03-11T09:01:18;2.50;99.90
77305;DHT22;66364;52.622;7.746;2023-03-11T09:03:19;2.70;99.90
77305;DHT22;66364;52.622;7.746;2023-03-11T09:05:20;2.70;99.90
77305;DHT22;66364;52.622;7.746;2023-03-11T09:07:21;3.10;99.90
77305;DHT22;66364;52.622;7.746;2023-03-11T09:09:22;3.00;99.90
77305;DHT22;66364;52.622;7.746;2023-03-11T09:11:23;3.30;99.90
77305;DHT22;66364;52.622;7.746;2023-03-11T09:13:24;3.30;99.90
77305;DHT22;66364;52.622;7.746;2023-03-11T09:15:24;3.50;99.90
77305;DHT22;66364;52.622;7.746;2023-03-11T09:17:25;3.60;99.90
77305;DHT22;66364;52.622;7.746;2023-03-11T09:19:26;4.00;99.90
77305;DHT22;66364;52.622;7.746;2023-03-11T09:21:33;4.40;99.90
77305;DHT22;66364;52.622;7.746;2023-03-11T09:23:34;3.80;99.90
77305;DHT22;66364;52.622;7.746;2023-03-11T09:25:35;4.00;99.90
77305;DHT22;66364;52.622;7.746;2023-03-11T09:27:35;4.30;99.90
77305;DHT22;66364;52.622;7.746;2023-03-11T09:29:36;3.90;99.90
77305;DHT22;66364;52.622;7.746;2023-03-11T09:31:37;4.60;99.90
77305;DHT22;66364;52.622;7.746;2023-03-11T09:33:39;4.60;99.90
77305;DHT22;66364;52.622;7.746;2023-03-11T09:35:40;5.40;99.90
77305;DHT22;66364;52.622;7.746;2023-03-11T09:37:41;4.70;99.90
77305;DHT22;66364;52.622;7.746;2023-03-11T09:39:47;5.40;99.90
77305;DHT22;66364;52.622;7.746;2023-03-11T09:42:03;5.00;99.90
77305;DHT22;66364;52.622;7.746;2023-03-11T09:44:36;5.40;99.90
77305;DHT22;66364;52.622;7.746;2023-03-11T09:48:58;5.30;99.90
77305;DHT22;66364;52.622;7.746;2023-03-11T09:51:04;5.70;99.90
77305;DHT22;66364;52.622;7.746;2023-03-11T09:53:43;5.60;99.90
77305;DHT22;66364;52.622;7.746;2023-03-11T09:55:58;5.70;99.90
77305;DHT22;66364;52.622;7.746;2023-03-11T09:58:02;6.30;99.90
77305;DHT22;66364;52.622;7.746;2023-03-11T10:00:08;6.00;99.90
77305;DHT22;66364;52.622;7.746;2023-03-11T10:02:13;6.20;99.90
77305;DHT22;66364;52.622;7.746;2023-03-11T10:04:17;6.20;99.90
77305;DHT22;66364;52.622;7.746;2023-03-11T10:06:27;6.40;99.90
77305;DHT22;66364;52.622;7.746;2023-03-11T10:08:45;6.40;99.90
77305;DHT22;66364;52.622;7.746;2023-03-11T10:11:41;6.10;99.90
77305;DHT22;66364;52.622;7.746;2023-03-11T10:17:51;6.40;99.90
77305;DHT22;66364;52.622;7.746;2023-03-11T10:20:07;5.80;99.90
77305;DHT22;66364;52.622;7.746;2023-03-11T10:22:25;5.60;99.90
77305;DHT22;66364;52.622;7.746;2023-03-11T10:24:34;6.20;99.90
77305;DHT22;66364;52.622;7.746;2023-03-11T10:26:41;6.10;99.90
77305;DHT22;66364;52.622;7.746;2023-03-11T10:28:51;5.70;99.90
77305;DHT22;66364;52.622;7.746;2023-03-11T10:33:28;6.30;99.90
77305;DHT22;66364;52.622;7.746;2023-03-11T10:35:35;6.70;99.90
77305;DHT22;66364;52.622;7.746;2023-03-11T10:37:41;6.70;99.90
77305;DHT22;66364;52.622;7.746;2023-03-11T10:39:45;7.90;99.90
77305;DHT22;66364;52.622;7.746;2023-03-11T10:42:11;7.60;95.50
77305;DHT22;66364;52.622;7.746;2023-03-11T10:46:46;6.50;97.70
77305;DHT22;66364;52.622;7.746;2023-03-11T10:48:47;6.30;98.20
77305;DHT22;66364;52.622;7.746;2023-03-11T10:51:04;6.40;96.30
77305;DHT22;66364;52.622;7.746;2023-03-11T10:53:09;6.60;97.80
77305;DHT22;66364;52.622;7.746;2023-03-11T10:55:14;6.70;95.90
77305;DHT22;66364;52.622;7.746;2023-03-11T10:59:47;5.90;98.80
77305;DHT22;66364;52.622;7.746;2023-03-11T11:01:54;6.40;99.90
77305;DHT22;66364;52.622;7.746;2023-03-11T11:03:57;6.40;99.90
77305;DHT22;66364;52.622;7.746;2023-03-11T11:06:05;6.40;99.70
77305;DHT22;66364;52.622;7.746;2023-03-11T11:08:14;6.50;99.90
77305;DHT22;66364;52.622;7.746;2023-03-11T11:10:18;5.90;99.90
77305;DHT22;66364;52.622;7.746;2023-03-11T11:12:20;6.40;99.90
77305;DHT22;66364;52.622;7.746;2023-03-11T11:14:40;6.70;99.90
77305;DHT22;66364;52.622;7.746;2023-03-11T11:16:43;6.70;99.90
77305;DHT22;66364;52.622;7.746;2023-03-11T11:19:09;6.20;99.90
77305;DHT22;66364;52.622;7.746;2023-03-11T11:21:41;6.10;99.90
77305;DHT22;66364;52.622;7.746;2023-03-11T11:23:48;6.80;99.90
77305;DHT22;66364;52.622;7.746;2023-03-11T11:26:00;7.00;99.90
77305;DHT22;66364;52.622;7.746;2023-03-11T11:28:01;7.00;99.90
77305;DHT22;66364;52.622;7.746;2023-03-11T11:32:18;7.70;98.40
77305;DHT22;66364;52.622;7.746;2023-03-11T11:34:34;7.40;94.40
77305;DHT22;66364;52.622;7.746;2023-03-11T11:36:35;7.60;94.30
77305;DHT22;66364;52.622;7.746;2023-03-11T11:38:36;7.50;90.10
77305;DHT22;66364;52.622;7.746;2023-03-11T11:40:37;7.10;82.10
77305;DHT22;66364;52.622;7.746;2023-03-11T11:42:49;7.50;94.60
77305;DHT22;66364;52.622;7.746;2023-03-11T11:44:56;7.50;92.90
77305;DHT22;66364;52.622;7.746;2023-03-11T11:47:22;8.10;88.10
77305;DHT22;66364;52.622;7.746;2023-03-11T11:49:26;8.20;83.90
77305;DHT22;66364;52.622;7.746;2023-03-11T11:56:25;8.40;68.20
77305;DHT22;66364;52.622;7.746;2023-03-11T11:58:26;7.70;66.60
77305;DHT22;66364;52.622;7.746;2023-03-11T12:00:33;8.00;69.90
77305;DHT22;66364;52.622;7.746;2023-03-11T12:14:57;9.10;61.60
77305;DHT22;66364;52.622;7.746;2023-03-11T12:17:00;8.70;57.70
77305;DHT22;66364;52.622;7.746;2023-03-11T12:26:24;9.10;55.60
77305;DHT22;66364;52.622;7.746;2023-03-11T12:28:39;8.70;53.40
77305;DHT22;66364;52.622;7.746;2023-03-11T12:30:47;9.20;58.80
77305;DHT22;66364;52.622;7.746;2023-03-11T12:33:04;8.90;50.70
77305;DHT22;66364;52.622;7.746;2023-03-11T12:35:00;9.00;56.10
77305;DHT22;66364;52.622;7.746;2023-03-11T12:37:01;9.20;47.50
77305;DHT22;66364;52.622;7.746;2023-03-11T12:39:06;9.50;58.20
77305;DHT22;66364;52.622;7.746;2023-03-11T12:45:48;8.60;57.30
77305;DHT22;66364;52.622;7.746;2023-03-11T12:48:23;8.40;50.20
77305;DHT22;66364;52.622;7.746;2023-03-11T12:50:37;8.80;55.80
77305;DHT22;66364;52.622;7.746;2023-03-11T12:54:29;7.60;56.20
77305;DHT22;66364;52.622;7.746;2023-03-11T12:56:42;8.30;63.10
77305;DHT22;66364;52.622;7.746;2023-03-11T13:07:46;7.60;56.20
77305;DHT22;66364;52.622;7.746;2023-03-11T13:11:46;7.70;62.10
77305;DHT22;66364;52.622;7.746;2023-03-11T13:13:47;7.30;59.90
77305;DHT22;66364;52.622;7.746;2023-03-11T13:15:48;8.00;60.40
77305;DHT22;66364;52.622;7.746;2023-03-11T13:18:02;7.90;59.80
77305;DHT22;66364;52.622;7.746;2023-03-11T13:19:59;7.60;58.10
77305;DHT22;66364;52.622;7.746;2023-03-11T13:22:02;7.60;61.40
77305;DHT22;66364;52.622;7.746;2023-03-11T13:26:49;8.00;57.60
77305;DHT22;66364;52.622;7.746;2023-03-11T13:31:42;7.10;62.00
77305;DHT22;66364;52.622;7.746;2023-03-11T13:40:42;7.10;61.20
77305;DHT22;66364;52.622;7.746;2023-03-11T13:44:48;7.40;57.10
77305;DHT22;66364;52.622;7.746;2023-03-11T13:46:52;6.60;56.40
77305;DHT22;66364;52.622;7.746;2023-03-11T13:51:23;6.50;60.00
77305;DHT22;66364;52.622;7.746;2023-03-11T13:55:46;6.80;63.80
77305;DHT22;66364;52.622;7.746;2023-03-11T13:57:55;7.40;58.30
77305;DHT22;66364;52.622;7.746;2023-03-11T14:00:09;7.40;56.60
77305;DHT22;66364;52.622;7.746;2023-03-11T14:02:25;7.60;60.20
77305;DHT22;66364;52.622;7.746;2023-03-11T14:04:29;7.50;55.30
77305;DHT22;66364;52.622;7.746;2023-03-11T14:06:30;7.00;54.40
77305;DHT22;66364;52.622;7.746;2023-03-11T14:08:33;6.60;53.70
77305;DHT22;66364;52.622;7.746;2023-03-11T14:10:34;7.10;55.20
77305;DHT22;66364;52.622;7.746;2023-03-11T14:12:35;7.30;62.10
77305;DHT22;66364;52.622;7.746;2023-03-11T14:14:59;7.50;52.90
77305;DHT22;66364;52.622;7.746;2023-03-11T14:17:05;6.90;50.40
77305;DHT22;66364;52.622;7.746;2023-03-11T14:19:15;7.50;49.10
77305;DHT22;66364;52.622;7.746;2023-03-11T14:21:21;7.40;47.70
77305;DHT22;66364;52.622;7.746;2023-03-11T14:25:47;8.00;46.70
77305;DHT22;66364;52.622;7.746;2023-03-11T14:27:53;8.00;43.00
77305;DHT22;66364;52.622;7.746;2023-03-11T14:29:54;8.80;44.20
77305;DHT22;66364;52.622;7.746;2023-03-11T14:31:55;9.30;39.90
77305;DHT22;66364;52.622;7.746;2023-03-11T14:36:04;9.50;37.90
77305;DHT22;66364;52.622;7.746;2023-03-11T14:38:19;8.90;38.60
77305;DHT22;66364;52.622;7.746;2023-03-11T14:40:34;9.50;45.60
77305;DHT22;66364;52.622;7.746;2023-03-11T14:42:37;9.60;40.30
77305;DHT22;66364;52.622;7.746;2023-03-11T14:44:40;9.40;39.50
77305;DHT22;66364;52.622;7.746;2023-03-11T14:46:42;9.00;37.60